createdAt,value
2022-09-12T00:02:41.324Z,20.00
2022-09-12T00:05:28.139Z,20.00
2022-09-12T00:08:14.924Z,20.20
2022-09-12T00:11:08.645Z,19.80
2022-09-12T00:13:59.815Z,20.20
2022-09-12T00:16:45.900Z,20.20
2022-09-12T00:19:31.562Z,19.80
2022-09-12T00:22:17.617Z,20.10
2022-09-12T00:25:04.592Z,19.50
2022-09-12T00:27:50.289Z,19.50
2022-09-12T00:30:43.355Z,20.10
2022-09-12T00:33:28.860Z,19.40
2022-09-12T00:36:17.722Z,19.80
2022-09-12T00:39:04.564Z,19.90
2022-09-12T00:41:50.133Z,19.60
2022-09-12T00:44:35.875Z,20.10
2022-09-12T00:47:27.169Z,19.40
2022-09-12T00:50:16.130Z,19.80
2022-09-12T00:53:08.735Z,20.00
2022-09-12T00:55:56.676Z,19.70
2022-09-12T00:59:00.102Z,19.60
2022-09-12T01:01:48.708Z,19.50
2022-09-12T01:04:37.218Z,19.60
2022-09-12T01:07:22.820Z,19.40
2022-09-12T01:10:09.896Z,19.60
2022-09-12T01:12:55.647Z,19.90
2022-09-12T01:15:41.592Z,19.20
2022-09-12T01:18:49.876Z,19.50
2022-09-12T01:22:03.696Z,19.60
2022-09-12T01:25:07.717Z,19.00
2022-09-12T01:28:22.018Z,18.90
2022-09-12T01:31:38.756Z,19.00
2022-09-12T01:34:30.653Z,19.20
2022-09-12T01:37:31.596Z,19.40
2022-09-12T01:40:29.412Z,19.40
2022-09-12T01:43:25.126Z,19.40
2022-09-12T01:46:17.766Z,19.70
2022-09-12T01:49:23.804Z,19.30
2022-09-12T01:52:21.017Z,19.20
2022-09-12T01:55:19.169Z,19.20
2022-09-12T01:58:17.815Z,19.40
2022-09-12T02:01:09.329Z,18.70
2022-09-12T02:04:08.969Z,19.40
2022-09-12T02:07:00.656Z,19.30
2022-09-12T02:09:54.180Z,19.00
2022-09-12T02:12:55.723Z,18.80
2022-09-12T02:15:47.772Z,19.20
2022-09-12T02:18:34.341Z,18.90
2022-09-12T02:21:22.619Z,19.10
2022-09-12T02:24:11.059Z,19.10
2022-09-12T02:27:23.299Z,19.00
2022-09-12T02:30:10.009Z,19.00
2022-09-12T02:33:00.819Z,19.00
2022-09-12T02:35:54.417Z,19.00
2022-09-12T02:38:48.020Z,19.00
2022-09-12T02:41:33.715Z,19.00
2022-09-12T02:44:19.912Z,19.00
2022-09-12T02:47:20.254Z,19.00
2022-09-12T02:50:08.094Z,19.00
2022-09-12T02:52:55.625Z,18.90
2022-09-12T02:55:42.992Z,18.90
2022-09-12T02:58:31.342Z,18.80
2022-09-12T03:01:31.100Z,18.70
2022-09-12T03:04:45.586Z,18.70
2022-09-12T03:07:43.950Z,20.10
2022-09-12T03:10:48.591Z,18.30
2022-09-12T03:14:05.250Z,18.70
2022-09-12T03:17:04.564Z,16.90
2022-09-12T03:20:18.600Z,18.60
2022-09-12T03:23:07.145Z,18.60
2022-09-12T03:26:09.461Z,18.80
2022-09-12T03:28:57.644Z,18.20
2022-09-12T03:31:55.262Z,18.60
2022-09-12T03:34:40.863Z,18.70
2022-09-12T03:37:26.685Z,18.50
2022-09-12T03:40:12.824Z,18.40
2022-09-12T03:42:58.461Z,18.60
2022-09-12T03:45:44.305Z,18.20
2022-09-12T03:48:31.775Z,17.90
2022-09-12T03:54:04.318Z,18.50
2022-09-12T03:56:50.011Z,17.90
2022-09-12T03:59:35.932Z,18.50
2022-09-12T04:02:21.674Z,18.00
2022-09-12T04:05:07.693Z,18.50
2022-09-12T04:07:53.356Z,18.70
2022-09-12T04:10:39.176Z,17.80
2022-09-12T04:16:12.217Z,18.10
2022-09-12T04:18:58.137Z,18.10
2022-09-12T04:27:16.178Z,17.80
2022-09-12T04:30:02.644Z,18.00
2022-09-12T04:32:48.434Z,18.00
2022-09-12T04:35:35.788Z,18.20
2022-09-12T04:41:15.051Z,18.00
2022-09-12T04:44:02.358Z,18.30
2022-09-12T04:46:48.395Z,18.30
2022-09-12T04:55:07.496Z,18.30
2022-09-12T05:06:15.095Z,18.20
2022-09-12T05:09:02.708Z,18.20
2022-09-12T05:12:05.344Z,18.40
2022-09-12T05:14:51.851Z,17.80
2022-09-12T05:17:37.505Z,17.90
2022-09-12T05:20:23.906Z,17.90
2022-09-12T05:25:57.867Z,18.30
2022-09-12T05:34:15.963Z,18.00
2022-09-12T05:37:01.810Z,18.70
2022-09-12T05:39:48.370Z,19.10
2022-09-12T05:45:20.105Z,19.00
2022-09-12T05:53:42.072Z,20.60
2022-09-12T05:56:33.219Z,21.70
2022-09-12T05:59:20.902Z,23.00
2022-09-12T06:04:52.668Z,24.60
2022-09-12T06:07:38.428Z,25.50
2022-09-12T06:10:26.479Z,25.90
2022-09-12T06:13:13.928Z,26.40
2022-09-12T06:16:08.538Z,25.90
2022-09-12T06:18:55.824Z,26.20
2022-09-12T06:27:13.567Z,25.10
2022-09-12T06:29:59.537Z,24.50
2022-09-12T06:41:12.473Z,24.30
2022-09-12T06:43:59.823Z,24.50
2022-09-12T06:55:07.398Z,23.90
2022-09-12T06:57:54.473Z,24.80
2022-09-12T07:06:13.848Z,25.00
2022-09-12T07:09:01.320Z,25.10
2022-09-12T07:14:33.610Z,25.10
2022-09-12T07:17:19.294Z,25.10
2022-09-12T07:20:05.170Z,25.20
2022-09-12T07:22:51.014Z,25.30
2022-09-12T07:25:37.737Z,25.30
2022-09-12T07:28:34.061Z,25.60
2022-09-12T07:31:21.933Z,24.60
2022-09-12T07:34:07.371Z,25.40
2022-09-12T07:41:38.260Z,25.30
2022-09-12T07:44:25.287Z,25.80
2022-09-12T07:47:11.020Z,26.10
2022-09-12T07:49:56.940Z,25.90
2022-09-12T07:52:42.618Z,25.90
2022-09-12T07:55:28.140Z,26.20
2022-09-12T08:01:08.924Z,26.30
2022-09-12T08:03:57.633Z,26.30
2022-09-12T08:06:43.173Z,26.30
2022-09-12T08:09:29.003Z,26.40
2022-09-12T08:12:16.658Z,26.20
2022-09-12T08:15:02.367Z,26.40
2022-09-12T08:17:47.869Z,26.40
2022-09-12T08:20:33.273Z,26.70
2022-09-12T08:23:21.234Z,26.70
2022-09-12T08:26:07.132Z,26.80
2022-09-12T08:28:53.700Z,26.60
2022-09-12T08:31:41.307Z,26.60
2022-09-12T08:34:27.016Z,26.60
2022-09-12T08:37:12.588Z,26.20
2022-09-12T08:39:59.055Z,26.40
2022-09-12T08:43:25.711Z,26.80
2022-09-12T08:46:35.916Z,27.60
2022-09-12T08:49:37.923Z,27.20
2022-09-12T08:52:33.512Z,27.30
2022-09-12T08:55:42.788Z,27.20
2022-09-12T08:58:29.706Z,27.10
2022-09-12T09:01:33.338Z,27.60
2022-09-12T09:04:39.328Z,28.00
2022-09-12T09:07:54.317Z,28.30
2022-09-12T09:11:10.202Z,28.30
2022-09-12T09:14:29.386Z,28.10
2022-09-12T09:17:45.581Z,28.00
2022-09-12T09:20:42.932Z,27.90
2022-09-12T09:23:32.764Z,27.40
2022-09-12T09:26:27.324Z,27.20
2022-09-12T09:29:22.827Z,27.00
2022-09-12T09:32:19.001Z,27.00
2022-09-12T09:35:37.945Z,27.00
2022-09-12T09:38:25.624Z,26.50
2022-09-12T09:41:25.845Z,26.40
2022-09-12T09:44:11.782Z,26.10
2022-09-12T09:46:59.702Z,26.30
2022-09-12T09:49:46.433Z,26.20
2022-09-12T09:52:33.281Z,25.90
2022-09-12T09:55:23.460Z,25.90
2022-09-12T09:58:09.313Z,25.90
2022-09-12T10:01:03.655Z,26.00
2022-09-12T10:03:52.143Z,26.00
2022-09-12T10:06:40.203Z,26.10
2022-09-12T10:09:34.936Z,26.00
2022-09-12T10:12:30.433Z,25.90
2022-09-12T10:15:29.557Z,26.10
2022-09-12T10:18:38.068Z,26.30
2022-09-12T10:21:46.892Z,26.40
2022-09-12T10:24:43.617Z,26.30
2022-09-12T10:27:33.656Z,26.40
2022-09-12T10:30:24.874Z,26.40
2022-09-12T10:33:12.867Z,26.40
2022-09-12T10:35:58.926Z,26.40
2022-09-12T10:39:00.742Z,26.20
2022-09-12T10:41:46.890Z,26.40
2022-09-12T10:44:34.953Z,26.20
2022-09-12T10:47:28.209Z,26.30
2022-09-12T10:50:29.116Z,26.30
2022-09-12T10:53:14.806Z,26.50
2022-09-12T10:56:22.589Z,26.50
2022-09-12T10:59:46.399Z,26.70
2022-09-12T11:02:55.364Z,26.80
2022-09-12T11:05:41.004Z,26.80
2022-09-12T11:08:49.607Z,26.80
2022-09-12T11:11:35.368Z,27.00
2022-09-12T11:14:35.799Z,27.00
2022-09-12T11:17:46.233Z,27.00
2022-09-12T11:20:49.966Z,27.00
2022-09-12T11:24:13.389Z,26.10
2022-09-12T11:27:05.158Z,27.00
2022-09-12T11:29:51.196Z,27.00
2022-09-12T11:33:00.230Z,27.20
2022-09-12T11:35:55.385Z,27.50
2022-09-12T11:38:49.133Z,27.30
2022-09-12T11:41:37.856Z,27.40
2022-09-12T11:44:31.749Z,27.50
2022-09-12T11:47:18.710Z,27.90
2022-09-12T11:50:21.671Z,27.50
2022-09-12T11:53:20.202Z,27.70
2022-09-12T11:56:13.538Z,27.50
2022-09-12T11:59:04.906Z,27.70
2022-09-12T12:01:54.609Z,27.50
2022-09-12T12:04:49.211Z,27.80
2022-09-12T12:07:57.425Z,27.60
2022-09-12T12:11:04.531Z,27.80
2022-09-12T12:14:14.801Z,27.80
2022-09-12T12:17:00.878Z,27.50
2022-09-12T12:19:48.710Z,28.10
2022-09-12T12:22:34.721Z,28.30
2022-09-12T12:25:22.395Z,28.00
2022-09-12T12:28:09.658Z,27.60
2022-09-12T12:30:56.145Z,27.90
2022-09-12T12:33:45.228Z,27.90
2022-09-12T12:36:40.997Z,27.90
2022-09-12T12:39:33.998Z,27.90
2022-09-12T12:42:31.241Z,28.00
2022-09-12T12:45:25.827Z,28.00
2022-09-12T12:48:16.615Z,28.10
2022-09-12T12:51:34.383Z,28.10
2022-09-12T12:54:40.099Z,28.00
2022-09-12T12:57:44.056Z,27.70
2022-09-12T13:00:40.081Z,28.20
2022-09-12T13:03:31.909Z,28.20
2022-09-12T13:06:27.595Z,28.00
2022-09-12T13:09:45.302Z,28.00
2022-09-12T13:12:51.947Z,28.20
2022-09-12T13:15:37.812Z,28.10
2022-09-12T13:18:30.221Z,28.10
2022-09-12T13:21:21.565Z,28.10
2022-09-12T13:24:16.145Z,28.30
2022-09-12T13:27:02.271Z,28.30
2022-09-12T13:29:47.842Z,28.50
2022-09-12T13:35:29.996Z,28.40
2022-09-12T13:38:33.772Z,28.30
2022-09-12T13:41:41.276Z,28.30
2022-09-12T13:44:28.390Z,28.20
2022-09-12T13:47:20.416Z,28.70
2022-09-12T13:50:08.995Z,28.40
2022-09-12T13:52:58.376Z,28.30
2022-09-12T13:55:47.993Z,28.40
2022-09-12T13:58:38.050Z,28.30
2022-09-12T14:01:25.898Z,28.40
2022-09-12T14:04:41.623Z,28.30
2022-09-12T14:07:27.669Z,28.30
2022-09-12T14:10:20.502Z,28.30
2022-09-12T14:13:13.483Z,28.40
2022-09-12T14:15:59.850Z,28.40
2022-09-12T14:18:48.186Z,28.40
2022-09-12T14:21:36.311Z,28.40
2022-09-12T14:24:25.052Z,28.40
2022-09-12T14:27:11.180Z,28.40
2022-09-12T14:30:08.998Z,28.30
2022-09-12T14:33:18.806Z,28.30
2022-09-12T14:36:09.565Z,28.30
2022-09-12T14:39:02.227Z,28.30
2022-09-12T14:41:49.083Z,28.30
2022-09-12T14:44:36.346Z,28.20
2022-09-12T14:47:25.529Z,28.30
2022-09-12T14:50:25.013Z,28.30
2022-09-12T14:53:16.985Z,28.30
2022-09-12T14:56:13.416Z,28.20
2022-09-12T14:59:34.367Z,28.10
2022-09-12T15:02:20.373Z,28.10
2022-09-12T15:05:09.071Z,28.10
2022-09-12T15:08:02.050Z,28.10
2022-09-12T15:10:47.888Z,28.10
2022-09-12T15:13:40.967Z,28.00
2022-09-12T15:16:26.919Z,27.90
2022-09-12T15:19:12.731Z,27.90
2022-09-12T15:21:58.654Z,28.00
2022-09-12T15:24:44.405Z,28.00
2022-09-12T15:27:40.910Z,28.00
2022-09-12T15:30:26.753Z,28.00
2022-09-12T15:33:14.079Z,28.00
2022-09-12T15:35:59.661Z,28.00
2022-09-12T15:38:46.284Z,27.90
2022-09-12T15:41:36.942Z,27.90
2022-09-12T15:44:23.673Z,27.80
2022-09-12T15:47:13.539Z,27.80
2022-09-12T15:49:59.205Z,27.80
2022-09-12T15:52:44.613Z,27.80
2022-09-12T15:55:34.765Z,27.80
2022-09-12T15:58:20.737Z,27.80
2022-09-12T16:01:06.288Z,27.70
2022-09-12T16:03:51.884Z,27.70
2022-09-12T16:06:37.857Z,27.60
2022-09-12T16:09:24.413Z,27.60
2022-09-12T16:12:10.142Z,27.60
2022-09-12T16:14:55.517Z,27.50
2022-09-12T16:17:41.827Z,27.50
2022-09-12T16:20:27.748Z,27.50
2022-09-12T16:23:14.120Z,27.40
2022-09-12T16:26:25.941Z,27.40
2022-09-12T16:29:16.760Z,27.40
2022-09-12T16:32:02.673Z,27.30
2022-09-12T16:34:48.310Z,27.30
2022-09-12T16:37:34.685Z,27.30
2022-09-12T16:40:21.380Z,27.30
2022-09-12T16:43:07.254Z,27.30
2022-09-12T16:46:01.357Z,27.30
2022-09-12T16:48:53.139Z,27.20
2022-09-12T16:51:38.965Z,27.30
2022-09-12T16:54:24.655Z,27.20
2022-09-12T16:57:11.600Z,27.10
2022-09-12T16:59:57.106Z,27.10
2022-09-12T17:02:43.008Z,27.10
2022-09-12T17:05:29.543Z,27.10
2022-09-12T17:08:15.089Z,27.00
2022-09-12T17:11:02.493Z,27.00
2022-09-12T17:14:06.429Z,26.90
2022-09-12T17:16:53.249Z,26.80
2022-09-12T17:19:39.249Z,26.80
2022-09-12T17:22:25.083Z,26.70
2022-09-12T17:25:10.776Z,26.60
2022-09-12T17:27:56.701Z,26.50
2022-09-12T17:30:44.176Z,26.50
2022-09-12T17:33:30.146Z,26.50
2022-09-12T17:36:17.830Z,26.40
2022-09-12T17:39:04.234Z,26.40
2022-09-12T17:41:51.823Z,26.30
2022-09-12T17:44:38.023Z,26.20
2022-09-12T17:47:23.787Z,26.20
2022-09-12T17:50:30.693Z,26.10
2022-09-12T17:53:15.982Z,26.10
2022-09-12T17:56:03.220Z,26.00
2022-09-12T17:58:49.018Z,26.00
2022-09-12T18:01:58.403Z,26.00
2022-09-12T18:04:48.466Z,25.90
2022-09-12T18:07:43.933Z,25.80
2022-09-12T18:10:29.742Z,25.80
2022-09-12T18:13:16.371Z,25.80
2022-09-12T18:16:11.347Z,25.80
2022-09-12T18:19:01.232Z,25.70
2022-09-12T18:21:46.883Z,25.50
2022-09-12T18:24:32.650Z,25.40
2022-09-12T18:27:18.694Z,25.30
2022-09-12T18:30:20.639Z,25.20
2022-09-12T18:33:07.513Z,25.20
2022-09-12T18:35:54.501Z,25.10
2022-09-12T18:38:42.228Z,25.00
2022-09-12T18:41:29.054Z,24.90
2022-09-12T18:44:14.891Z,24.90
2022-09-12T18:47:02.194Z,24.80
2022-09-12T18:49:48.513Z,24.80
2022-09-12T18:52:34.429Z,24.70
2022-09-12T18:55:20.946Z,24.60
2022-09-12T18:58:06.804Z,24.60
2022-09-12T19:00:52.843Z,24.60
2022-09-12T19:03:38.738Z,24.50
2022-09-12T19:06:27.797Z,24.50
2022-09-12T19:09:16.397Z,24.40
2022-09-12T19:12:02.285Z,24.40
2022-09-12T19:14:53.888Z,24.40
2022-09-12T19:17:39.473Z,24.40
2022-09-12T19:20:25.878Z,24.20
2022-09-12T19:23:11.505Z,24.20
2022-09-12T19:25:59.352Z,24.20
2022-09-12T19:28:45.692Z,24.20
2022-09-12T19:31:34.961Z,24.20
2022-09-12T19:34:20.704Z,24.20
2022-09-12T19:37:06.388Z,24.10
2022-09-12T19:39:52.259Z,24.10
2022-09-12T19:42:38.201Z,24.10
2022-09-12T19:45:24.061Z,24.10
2022-09-12T19:48:10.116Z,24.00
2022-09-12T19:51:07.497Z,24.00
2022-09-12T19:53:53.415Z,23.90
2022-09-12T19:56:38.953Z,23.90
2022-09-12T19:59:27.177Z,23.80
2022-09-12T20:02:13.020Z,23.80
2022-09-12T20:04:58.929Z,23.80
2022-09-12T20:07:44.681Z,23.80
2022-09-12T20:10:30.684Z,23.80
2022-09-12T20:13:16.282Z,23.80
2022-09-12T20:16:25.216Z,23.80
2022-09-12T20:19:11.020Z,23.70
2022-09-12T20:21:58.359Z,23.70
2022-09-12T20:24:44.476Z,23.70
2022-09-12T20:27:29.946Z,23.70
2022-09-12T20:30:16.643Z,23.70
2022-09-12T20:33:02.629Z,23.70
2022-09-12T20:35:48.145Z,23.70
2022-09-12T20:38:34.570Z,23.70
2022-09-12T20:41:20.927Z,23.70
2022-09-12T20:44:06.346Z,23.60
2022-09-12T20:46:52.711Z,23.60
2022-09-12T20:49:38.602Z,23.60
2022-09-12T20:52:25.028Z,23.50
2022-09-12T20:55:11.230Z,23.50
2022-09-12T20:57:57.069Z,23.50
2022-09-12T21:00:43.166Z,23.40
2022-09-12T21:03:28.996Z,23.40
2022-09-12T21:06:18.837Z,23.30
2022-09-12T21:09:05.632Z,23.30
2022-09-12T21:11:51.403Z,23.30
2022-09-12T21:14:37.394Z,23.20
2022-09-12T21:17:23.184Z,23.10
2022-09-12T21:20:11.443Z,23.10
2022-09-12T21:22:57.282Z,23.00
2022-09-12T21:25:52.052Z,23.00
2022-09-12T21:28:38.172Z,22.90
2022-09-12T21:31:25.080Z,23.00
2022-09-12T21:34:10.867Z,22.90
2022-09-12T21:36:56.896Z,22.90
2022-09-12T21:39:42.521Z,22.80
2022-09-12T21:42:28.111Z,22.80
2022-09-12T21:45:13.911Z,22.70
2022-09-12T21:47:59.356Z,22.70
2022-09-12T21:50:50.313Z,22.60
2022-09-12T21:53:36.663Z,22.60
2022-09-12T21:56:23.385Z,22.60
2022-09-12T21:59:08.879Z,22.50
2022-09-12T22:01:54.915Z,22.40
2022-09-12T22:04:40.617Z,22.40
2022-09-12T22:07:26.660Z,22.30
2022-09-12T22:10:12.570Z,22.30
2022-09-12T22:12:58.343Z,22.30
2022-09-12T22:15:49.607Z,22.20
2022-09-12T22:18:51.907Z,22.20
2022-09-12T22:21:58.112Z,22.20
2022-09-12T22:24:44.328Z,22.10
2022-09-12T22:27:30.311Z,22.10
2022-09-12T22:30:16.348Z,22.10
2022-09-12T22:33:02.131Z,22.10
2022-09-12T22:35:47.828Z,22.10
2022-09-12T22:38:33.751Z,22.10
2022-09-12T22:41:19.609Z,22.10
2022-09-12T22:44:06.600Z,22.00
2022-09-12T22:46:52.247Z,22.00
2022-09-12T22:49:38.223Z,21.90
2022-09-12T22:52:24.847Z,21.90
2022-09-12T22:55:10.975Z,21.90
2022-09-12T22:57:57.032Z,21.80
2022-09-12T23:00:48.515Z,21.80
2022-09-12T23:03:35.187Z,21.80
2022-09-12T23:06:21.334Z,21.80
2022-09-12T23:09:07.235Z,21.80
2022-09-12T23:11:53.314Z,21.80
2022-09-12T23:14:39.005Z,21.70
2022-09-12T23:17:24.590Z,21.60
2022-09-12T23:20:09.917Z,21.60
2022-09-12T23:22:56.007Z,21.60
2022-09-12T23:25:41.816Z,21.60
2022-09-12T23:28:27.753Z,21.60
2022-09-12T23:31:13.687Z,21.50
2022-09-12T23:34:02.151Z,21.50
2022-09-12T23:36:47.847Z,21.50
2022-09-12T23:39:34.350Z,21.40
2022-09-12T23:42:19.729Z,21.40
2022-09-12T23:45:05.544Z,21.40
2022-09-12T23:47:51.081Z,21.40
2022-09-12T23:50:36.889Z,21.40
2022-09-12T23:53:23.574Z,21.40
2022-09-12T23:56:09.177Z,21.30
2022-09-12T23:58:54.965Z,21.30
